South Elm, Texas
Current Conditions -  °F | °C
As of 8:15 AM on Thursday 18 Dec 2014 (Local Time) from KT35 Reporting Station
Moderate Fog Moderate Fog  
Wind Chill: 49°   Ceiling: 300
Heat Index: 49°   Visibility: 0.5mi
Dew Point: 48°   Wind: 0mph
Humidity: 99%   Direction: NA
Pressure: 30.14"   Gusts: NA
Location:  30.8953°N, 97.127°W
Report Text: KT35 181415Z AUTO 00000KT 1/2SM FG OVC003 09/09 A3014 RMK AO2 T00920090
Loading
Personal Weather Stations






























Interactive Weather Map New forecast layout! Learn more

10-Day Weather Forecast

Advertisements
Track Severe Weather on mobile